Time;durP1;ratioP1;P1;durP2;ratioP2;P2;SDS_P1;SDS_P2;PMS_P1;PMS_P2;Temp;Humidity;BMP_temperature;BMP_pressure;BME280_temperature;BME280_humidity;BME280_pressure;Samples;Min_cycle;Max_cycle;Signal;HPM_P1;HPM_P2
2023/08/05 00:02:21;;;;;;;;;;;21.20;69.90;;;;;;5028319;28;19913;-54
2023/08/05 00:04:46;;;;;;;;;;;21.20;69.90;;;;;;5032529;28;20427;-53
2023/08/05 00:07:12;;;;;;;;;;;21.20;69.60;;;;;;5030401;28;20438;-53
2023/08/05 00:09:37;;;;;;;;;;;21.20;70.50;;;;;;5031552;28;20011;-54
2023/08/05 00:12:03;;;;;;;;;;;21.20;70.40;;;;;;5030797;28;19921;-55
2023/08/05 00:14:28;;;;;;;;;;;21.20;69.60;;;;;;5028485;28;19917;-55
2023/08/05 00:16:53;;;;;;;;;;;21.20;69.60;;;;;;5029192;28;19956;-54
2023/08/05 00:19:19;;;;;;;;;;;21.20;69.60;;;;;;5030701;28;19966;-55
2023/08/05 00:21:44;;;;;;;;;;;21.20;70.20;;;;;;5032325;28;19921;-54
2023/08/05 00:24:10;;;;;;;;;;;21.20;69.80;;;;;;5031674;28;19964;-53
2023/08/05 00:26:35;;;;;;;;;;;21.20;69.70;;;;;;5031242;28;19913;-53
2023/08/05 00:29:01;;;;;;;;;;;21.20;69.70;;;;;;5027929;28;19920;-53
2023/08/05 00:31:26;;;;;;;;;;;21.20;69.90;;;;;;5030333;28;19917;-53
2023/08/05 00:33:51;;;;;;;;;;;21.20;70.00;;;;;;5031327;28;19948;-54
2023/08/05 00:36:17;;;;;;;;;;;21.20;69.70;;;;;;5032421;28;19920;-53
2023/08/05 00:38:42;;;;;;;;;;;21.10;69.70;;;;;;5031839;28;19917;-55
2023/08/05 00:41:08;;;;;;;;;;;21.10;69.90;;;;;;5032139;28;19920;-53
2023/08/05 00:43:33;;;;;;;;;;;21.10;69.90;;;;;;5031065;28;20012;-54
2023/08/05 00:45:59;;;;;;;;;;;21.10;69.70;;;;;;5029351;28;20403;-54
2023/08/05 00:48:26;;;;;;;;;;;21.10;69.70;;;;;;5031587;28;19925;-53
2023/08/05 00:50:51;;;;;;;;;;;21.10;70.10;;;;;;5032181;28;19921;-53
2023/08/05 00:53:17;;;;;;;;;;;21.10;69.80;;;;;;5031410;28;19909;-54
2023/08/05 00:55:42;;;;;;;;;;;21.10;69.70;;;;;;5029799;28;19917;-53
2023/08/05 00:58:08;;;;;;;;;;;21.10;69.80;;;;;;5019279;28;20231;-53
2023/08/05 01:00:33;;;;;;;;;;;21.10;70.00;;;;;;5013051;28;19924;-54
2023/08/05 01:02:59;;;;;;;;;;;21.10;71.00;;;;;;5028317;28;19913;-54
2023/08/05 01:05:24;;;;;;;;;;;21.10;69.90;;;;;;5032012;28;20361;-53
2023/08/05 01:07:50;;;;;;;;;;;21.10;70.00;;;;;;5012916;28;20323;-53
2023/08/05 01:10:15;;;;;;;;;;;21.10;69.90;;;;;;5028367;28;20296;-53
2023/08/05 01:12:41;;;;;;;;;;;21.10;70.10;;;;;;5028850;28;20372;-53
2023/08/05 01:15:07;;;;;;;;;;;21.10;70.00;;;;;;5016364;28;20401;-54
2023/08/05 01:17:32;;;;;;;;;;;21.10;70.00;;;;;;5034658;28;19913;-53
2023/08/05 01:19:58;;;;;;;;;;;21.10;70.00;;;;;;5034507;28;19917;-53
2023/08/05 01:22:27;;;;;;;;;;;21.10;70.00;;;;;;5034686;28;20020;-54
2023/08/05 01:24:55;;;;;;;;;;;21.10;70.20;;;;;;5016602;28;20406;-54
2023/08/05 01:27:21;;;;;;;;;;;21.10;70.10;;;;;;5014337;28;19913;-53
2023/08/05 01:29:46;;;;;;;;;;;21.10;69.90;;;;;;5032097;28;20293;-53
2023/08/05 01:32:12;;;;;;;;;;;21.10;70.20;;;;;;5031585;28;20000;-53
2023/08/05 01:34:38;;;;;;;;;;;21.10;70.10;;;;;;5034479;28;19913;-54
2023/08/05 01:37:03;;;;;;;;;;;21.10;70.00;;;;;;5016445;28;20308;-53
2023/08/05 01:39:29;;;;;;;;;;;21.10;70.00;;;;;;5034117;28;19910;-54
2023/08/05 01:41:54;;;;;;;;;;;21.10;70.00;;;;;;5033043;28;20447;-55
2023/08/05 01:44:20;;;;;;;;;;;21.10;70.20;;;;;;5034540;28;19915;-53
2023/08/05 01:46:45;;;;;;;;;;;21.10;70.00;;;;;;5033603;28;20000;-54
2023/08/05 01:49:11;;;;;;;;;;;21.10;70.10;;;;;;5033425;28;20367;-53
2023/08/05 01:51:36;;;;;;;;;;;21.10;70.10;;;;;;5033900;28;19917;-54
2023/08/05 01:54:01;;;;;;;;;;;21.10;70.10;;;;;;5036681;28;19913;-53
2023/08/05 01:56:27;;;;;;;;;;;21.10;69.80;;;;;;5032210;28;19960;-53
2023/08/05 01:58:52;;;;;;;;;;;21.10;70.00;;;;;;5034292;28;20012;-53
2023/08/05 02:01:18;;;;;;;;;;;21.10;70.10;;;;;;5032449;28;20533;-53
2023/08/05 02:03:43;;;;;;;;;;;21.10;70.00;;;;;;5034161;28;20403;-54
2023/08/05 02:06:09;;;;;;;;;;;21.10;69.90;;;;;;5039832;28;20266;-53
2023/08/05 02:08:34;;;;;;;;;;;21.10;70.00;;;;;;5038276;28;20289;-53
2023/08/05 02:10:59;;;;;;;;;;;21.10;70.20;;;;;;5028745;28;20012;-54
2023/08/05 02:13:25;;;;;;;;;;;21.00;70.00;;;;;;5034000;28;19916;-54
2023/08/05 02:15:50;;;;;;;;;;;21.00;70.00;;;;;;5033684;28;19924;-54
2023/08/05 02:18:16;;;;;;;;;;;21.00;70.00;;;;;;5038348;28;19913;-54
2023/08/05 02:20:41;;;;;;;;;;;21.00;69.90;;;;;;5032601;28;19917;-53
2023/08/05 02:23:06;;;;;;;;;;;21.00;69.80;;;;;;5030476;28;19998;-53
2023/08/05 02:25:32;;;;;;;;;;;21.00;69.90;;;;;;5032230;28;19920;-53
2023/08/05 02:27:57;;;;;;;;;;;21.10;70.10;;;;;;5032337;28;19920;-54
2023/08/05 02:30:23;;;;;;;;;;;21.00;70.00;;;;;;5045792;28;20469;-54
2023/08/05 02:32:48;;;;;;;;;;;21.00;69.90;;;;;;5032975;28;19917;-55
2023/08/05 02:35:14;;;;;;;;;;;21.00;70.00;;;;;;5033397;28;19925;-53
2023/08/05 02:37:39;;;;;;;;;;;21.00;70.10;;;;;;5033828;28;19913;-54
2023/08/05 02:40:05;;;;;;;;;;;21.00;70.10;;;;;;5032362;28;20391;-53
2023/08/05 02:42:30;;;;;;;;;;;21.00;70.00;;;;;;5033834;28;19966;-54
2023/08/05 02:44:56;;;;;;;;;;;21.00;70.00;;;;;;5029594;28;19921;-54
2023/08/05 02:47:21;;;;;;;;;;;21.00;70.00;;;;;;5032921;28;19913;-54
2023/08/05 02:49:47;;;;;;;;;;;21.00;70.40;;;;;;5037838;28;19920;-53
2023/08/05 02:52:12;;;;;;;;;;;21.00;70.30;;;;;;5039552;28;19913;-53
2023/08/05 02:54:37;;;;;;;;;;;21.00;70.00;;;;;;5030371;28;19979;-53
2023/08/05 02:57:03;;;;;;;;;;;21.00;70.20;;;;;;5032233;28;20269;-53
2023/08/05 02:59:28;;;;;;;;;;;21.00;70.30;;;;;;5014099;28;20289;-53
2023/08/05 03:01:54;;;;;;;;;;;21.00;70.10;;;;;;5033213;28;19962;-53
2023/08/05 03:04:19;;;;;;;;;;;20.90;70.00;;;;;;5033615;28;20039;-53
2023/08/05 03:06:45;;;;;;;;;;;21.00;70.20;;;;;;5031594;28;19938;-53
2023/08/05 03:09:10;;;;;;;;;;;21.00;70.50;;;;;;5030231;28;19920;-54
2023/08/05 03:11:36;;;;;;;;;;;21.00;70.10;;;;;;5033746;28;19962;-53
2023/08/05 03:14:02;;;;;;;;;;;20.90;70.10;;;;;;5033290;28;19913;-53
2023/08/05 03:16:27;;;;;;;;;;;21.00;70.40;;;;;;5032659;28;19978;-53
2023/08/05 03:18:53;;;;;;;;;;;20.90;70.30;;;;;;5032372;28;19917;-54
2023/08/05 03:21:18;;;;;;;;;;;21.00;70.50;;;;;;5031185;28;19923;-53
2023/08/05 03:23:44;;;;;;;;;;;20.90;70.30;;;;;;5033270;28;19917;-55
2023/08/05 03:26:09;;;;;;;;;;;21.00;70.30;;;;;;5032311;28;20349;-54
2023/08/05 03:28:35;;;;;;;;;;;20.90;70.20;;;;;;5031217;28;19917;-54
2023/08/05 03:31:00;;;;;;;;;;;20.90;70.10;;;;;;5031925;28;19917;-55
2023/08/05 03:33:25;;;;;;;;;;;20.90;70.20;;;;;;5032855;28;19909;-53
2023/08/05 03:35:51;;;;;;;;;;;20.90;70.10;;;;;;5033409;28;19913;-53
2023/08/05 03:38:16;;;;;;;;;;;20.90;70.20;;;;;;5031258;28;19949;-53
2023/08/05 03:40:42;;;;;;;;;;;20.90;70.30;;;;;;5031472;28;20373;-53
2023/08/05 03:43:08;;;;;;;;;;;20.90;70.20;;;;;;5032511;28;19920;-54
2023/08/05 03:45:33;;;;;;;;;;;20.90;70.00;;;;;;5033570;28;19924;-53
2023/08/05 03:47:59;;;;;;;;;;;20.90;70.10;;;;;;5032936;28;20012;-53
2023/08/05 03:50:28;;;;;;;;;;;20.90;70.10;;;;;;5030377;28;19925;-54
2023/08/05 03:52:54;;;;;;;;;;;20.90;70.10;;;;;;5031960;28;20023;-54
2023/08/05 03:55:19;;;;;;;;;;;20.90;70.30;;;;;;5032918;28;20333;-55
2023/08/05 03:57:46;;;;;;;;;;;20.90;70.20;;;;;;5032589;28;20007;-54
2023/08/05 04:00:12;;;;;;;;;;;20.90;70.30;;;;;;5032664;28;19913;-53
2023/08/05 04:02:38;;;;;;;;;;;20.90;70.20;;;;;;5029958;28;20456;-53
2023/08/05 04:05:04;;;;;;;;;;;20.80;70.10;;;;;;5030720;28;19924;-54
2023/08/05 04:07:30;;;;;;;;;;;20.90;70.20;;;;;;5032537;28;19909;-54
2023/08/05 04:09:55;;;;;;;;;;;20.90;70.20;;;;;;5032218;28;19967;-53
2023/08/05 04:12:21;;;;;;;;;;;20.80;70.50;;;;;;5041144;28;19912;-54
2023/08/05 04:14:46;;;;;;;;;;;20.90;70.20;;;;;;5032017;28;20396;-53
2023/08/05 04:17:14;;;;;;;;;;;20.80;70.20;;;;;;5031298;28;19932;-54
2023/08/05 04:19:40;;;;;;;;;;;20.80;70.20;;;;;;5009130;28;19921;-53
2023/08/05 04:22:06;;;;;;;;;;;20.80;70.00;;;;;;5012989;28;20008;-53
2023/08/05 04:24:32;;;;;;;;;;;20.90;70.30;;;;;;5028325;28;20237;-54
2023/08/05 04:26:58;;;;;;;;;;;20.80;70.10;;;;;;5031308;28;19913;-53
2023/08/05 04:29:23;;;;;;;;;;;20.80;70.30;;;;;;5031613;28;19925;-53
2023/08/05 04:31:49;;;;;;;;;;;20.90;70.20;;;;;;5032418;28;19920;-54
2023/08/05 04:34:14;;;;;;;;;;;20.80;70.10;;;;;;5030331;28;19972;-54
2023/08/05 04:36:40;;;;;;;;;;;20.90;70.40;;;;;;5032095;28;19932;-53
2023/08/05 04:39:06;;;;;;;;;;;20.80;70.30;;;;;;5031895;28;19962;-53
2023/08/05 04:41:32;;;;;;;;;;;20.90;70.30;;;;;;5039197;28;19913;-53
2023/08/05 04:43:57;;;;;;;;;;;20.90;70.60;;;;;;5031437;28;19916;-53
2023/08/05 04:46:23;;;;;;;;;;;20.80;70.50;;;;;;5012579;28;19925;-53
2023/08/05 04:48:48;;;;;;;;;;;20.80;70.60;;;;;;5029545;28;19971;-53
2023/08/05 04:51:13;;;;;;;;;;;20.90;70.60;;;;;;5032283;28;19917;-55
2023/08/05 04:53:39;;;;;;;;;;;20.80;70.30;;;;;;5031562;28;19917;-54
2023/08/05 04:56:04;;;;;;;;;;;20.80;70.70;;;;;;5031968;28;19913;-54
2023/08/05 04:58:30;;;;;;;;;;;20.90;70.50;;;;;;5030568;28;19996;-53
2023/08/05 05:00:56;;;;;;;;;;;20.80;70.50;;;;;;5046212;28;19916;-53
2023/08/05 05:03:22;;;;;;;;;;;20.80;70.40;;;;;;5029624;28;20273;-53
2023/08/05 05:05:47;;;;;;;;;;;20.80;70.40;;;;;;5031349;28;19959;-53
2023/08/05 05:08:13;;;;;;;;;;;20.80;70.50;;;;;;5026239;28;19922;-54
2023/08/05 05:10:38;;;;;;;;;;;20.80;70.50;;;;;;5030083;28;20250;-54
2023/08/05 05:13:04;;;;;;;;;;;20.80;70.40;;;;;;5030557;28;20428;-53
2023/08/05 05:15:29;;;;;;;;;;;20.80;70.40;;;;;;5031711;28;20327;-53
2023/08/05 05:17:54;;;;;;;;;;;20.80;70.40;;;;;;5030201;28;19980;-53
2023/08/05 05:20:20;;;;;;;;;;;20.80;70.40;;;;;;5031377;28;19917;-53
2023/08/05 05:22:45;;;;;;;;;;;20.80;70.40;;;;;;5030814;28;19919;-54
2023/08/05 05:25:11;;;;;;;;;;;20.80;70.30;;;;;;5029917;28;19966;-53
2023/08/05 05:27:36;;;;;;;;;;;20.80;70.50;;;;;;5031515;28;19916;-54
2023/08/05 05:30:02;;;;;;;;;;;20.80;70.40;;;;;;5029495;28;19912;-54
2023/08/05 05:32:28;;;;;;;;;;;20.80;70.60;;;;;;5030263;28;19916;-55
2023/08/05 05:34:53;;;;;;;;;;;20.80;70.40;;;;;;5030706;28;19964;-53
2023/08/05 05:37:18;;;;;;;;;;;20.80;70.50;;;;;;5031624;28;19967;-54
2023/08/05 05:39:44;;;;;;;;;;;20.80;70.40;;;;;;5031347;28;19920;-53
2023/08/05 05:42:10;;;;;;;;;;;20.80;70.50;;;;;;5031720;28;19913;-53
2023/08/05 05:44:35;;;;;;;;;;;20.80;70.50;;;;;;5027985;28;19920;-54
2023/08/05 05:47:01;;;;;;;;;;;20.80;70.60;;;;;;5013153;28;19909;-53
2023/08/05 05:49:27;;;;;;;;;;;20.80;70.60;;;;;;5030841;28;19921;-54
2023/08/05 05:51:52;;;;;;;;;;;20.80;70.50;;;;;;5014084;28;20416;-53
2023/08/05 05:54:18;;;;;;;;;;;20.80;70.60;;;;;;5044034;28;19939;-53
2023/08/05 05:56:43;;;;;;;;;;;20.80;70.60;;;;;;5031337;28;19997;-53
2023/08/05 05:59:09;;;;;;;;;;;20.80;70.60;;;;;;5028912;28;19917;-54
2023/08/05 06:01:34;;;;;;;;;;;20.80;70.50;;;;;;5031846;28;19920;-53
2023/08/05 06:04:02;;;;;;;;;;;20.80;70.70;;;;;;5034934;28;20339;-54
2023/08/05 06:06:28;;;;;;;;;;;20.70;70.50;;;;;;5035037;28;20288;-53
2023/08/05 06:08:53;;;;;;;;;;;20.70;70.70;;;;;;5034740;28;19913;-54
2023/08/05 06:11:19;;;;;;;;;;;20.80;70.80;;;;;;5032589;28;19917;-55
2023/08/05 06:13:44;;;;;;;;;;;20.80;70.70;;;;;;5031931;28;19998;-53
2023/08/05 06:16:10;;;;;;;;;;;20.80;70.70;;;;;;5032232;28;19928;-54
2023/08/05 06:18:35;;;;;;;;;;;20.80;70.70;;;;;;5034354;28;19945;-55
2023/08/05 06:21:01;;;;;;;;;;;20.80;70.70;;;;;;5050123;28;20443;-53
2023/08/05 06:23:26;;;;;;;;;;;20.80;70.70;;;;;;5044497;28;19913;-53
2023/08/05 06:25:51;;;;;;;;;;;20.80;70.80;;;;;;5032896;28;20431;-54
2023/08/05 06:28:17;;;;;;;;;;;20.80;70.70;;;;;;5033695;28;20396;-53
2023/08/05 06:30:43;;;;;;;;;;;20.80;70.80;;;;;;5032718;28;20531;-53
2023/08/05 06:33:08;;;;;;;;;;;20.70;70.70;;;;;;5033878;28;19913;-53
2023/08/05 06:35:34;;;;;;;;;;;20.70;70.40;;;;;;5034268;28;19926;-53
2023/08/05 06:38:00;;;;;;;;;;;20.80;70.60;;;;;;5034320;28;19916;-54
2023/08/05 06:40:25;;;;;;;;;;;20.80;70.50;;;;;;5032181;28;19959;-53
2023/08/05 06:42:50;;;;;;;;;;;20.80;70.60;;;;;;5033780;28;19909;-54
2023/08/05 06:45:16;;;;;;;;;;;20.80;70.60;;;;;;5031471;28;20008;-54
2023/08/05 06:47:41;;;;;;;;;;;20.80;70.70;;;;;;5019497;28;19913;-54
2023/08/05 06:50:07;;;;;;;;;;;20.80;70.70;;;;;;5021926;28;19917;-54
2023/08/05 06:52:33;;;;;;;;;;;20.80;70.80;;;;;;5032009;28;20059;-54
2023/08/05 06:55:01;;;;;;;;;;;20.80;70.90;;;;;;5033898;28;19924;-54
2023/08/05 06:57:27;;;;;;;;;;;20.80;70.70;;;;;;5030932;28;19913;-54
2023/08/05 06:59:52;;;;;;;;;;;20.80;70.70;;;;;;5011611;28;19946;-54
2023/08/05 07:02:18;;;;;;;;;;;20.80;70.90;;;;;;5032254;28;19914;-53
2023/08/05 07:04:43;;;;;;;;;;;20.80;70.80;;;;;;5034030;28;19929;-54
2023/08/05 07:07:09;;;;;;;;;;;20.80;70.70;;;;;;5033339;28;19921;-54
2023/08/05 07:09:34;;;;;;;;;;;20.80;70.70;;;;;;5031479;28;19927;-53
2023/08/05 07:12:00;;;;;;;;;;;20.80;70.70;;;;;;5032357;28;20385;-54
2023/08/05 07:14:25;;;;;;;;;;;20.80;70.90;;;;;;5033010;28;20319;-53
2023/08/05 07:16:51;;;;;;;;;;;20.80;70.90;;;;;;5037125;28;19913;-54
2023/08/05 07:19:16;;;;;;;;;;;20.80;71.00;;;;;;5033623;28;19912;-53
2023/08/05 07:21:42;;;;;;;;;;;20.80;70.90;;;;;;5033307;28;19913;-53
2023/08/05 07:24:07;;;;;;;;;;;20.90;71.10;;;;;;5032281;28;19936;-53
2023/08/05 07:26:33;;;;;;;;;;;20.80;70.80;;;;;;5031144;28;19917;-53
2023/08/05 07:28:58;;;;;;;;;;;20.80;70.80;;;;;;5025416;28;19948;-54
2023/08/05 07:31:24;;;;;;;;;;;20.80;70.80;;;;;;5020126;28;19922;-53
2023/08/05 07:33:51;;;;;;;;;;;20.80;70.90;;;;;;5029707;28;19909;-54
2023/08/05 07:36:16;;;;;;;;;;;20.80;70.90;;;;;;5033388;28;20404;-54
2023/08/05 07:38:43;;;;;;;;;;;20.80;70.80;;;;;;5030017;28;19917;-53
2023/08/05 07:41:09;;;;;;;;;;;20.80;70.80;;;;;;5026826;28;21494;-53
2023/08/05 07:43:35;;;;;;;;;;;20.80;70.80;;;;;;5012560;28;19928;-53
2023/08/05 07:46:05;;;;;;;;;;;20.80;70.60;;;;;;5018773;28;19978;-53
2023/08/05 07:48:35;;;;;;;;;;;20.80;70.40;;;;;;5031420;28;19932;-53
2023/08/05 07:51:06;;;;;;;;;;;20.70;70.30;;;;;;5033427;28;20002;-53
2023/08/05 07:53:37;;;;;;;;;;;20.80;70.10;;;;;;5029381;28;19924;-54
2023/08/05 07:56:12;;;;;;;;;;;20.80;70.00;;;;;;5026209;28;19924;-54
2023/08/05 07:58:42;;;;;;;;;;;20.70;69.80;;;;;;5030432;28;20054;-53
2023/08/05 08:01:13;;;;;;;;;;;20.70;69.60;;;;;;5031692;28;19919;-53
2023/08/05 08:03:40;;;;;;;;;;;20.70;69.60;;;;;;5032707;28;19916;-53
2023/08/05 08:06:05;;;;;;;;;;;20.70;69.30;;;;;;5028956;28;20066;-54
2023/08/05 08:08:31;;;;;;;;;;;20.70;69.40;;;;;;5023657;28;20012;-53
2023/08/05 08:10:56;;;;;;;;;;;20.70;69.40;;;;;;5022853;28;19921;-54
2023/08/05 08:13:22;;;;;;;;;;;20.80;69.20;;;;;;5028094;28;19913;-53
2023/08/05 08:15:47;;;;;;;;;;;20.80;68.90;;;;;;5031799;28;19921;-54
2023/08/05 08:18:13;;;;;;;;;;;20.80;68.50;;;;;;5030063;28;19913;-54
2023/08/05 08:20:38;;;;;;;;;;;20.80;68.10;;;;;;5027739;28;19917;-53
2023/08/05 08:23:04;;;;;;;;;;;20.80;68.50;;;;;;5033199;28;19932;-53
2023/08/05 08:25:29;;;;;;;;;;;20.80;68.20;;;;;;5036655;28;19913;-53
2023/08/05 08:27:55;;;;;;;;;;;20.80;67.00;;;;;;5031643;28;19963;-53
2023/08/05 08:30:20;;;;;;;;;;;20.80;66.80;;;;;;5031948;28;19909;-54
2023/08/05 08:32:45;;;;;;;;;;;20.80;66.20;;;;;;5025466;28;19932;-53
2023/08/05 08:35:11;;;;;;;;;;;20.80;65.70;;;;;;5028733;28;20083;-54
2023/08/05 08:37:36;;;;;;;;;;;20.80;66.00;;;;;;5030300;28;19913;-53
2023/08/05 08:40:02;;;;;;;;;;;20.80;66.30;;;;;;5030447;28;20403;-54
2023/08/05 08:42:28;;;;;;;;;;;20.90;65.70;;;;;;5029682;28;19916;-53
2023/08/05 08:44:53;;;;;;;;;;;20.80;65.70;;;;;;5027324;28;19914;-53
2023/08/05 08:47:19;;;;;;;;;;;20.80;64.30;;;;;;5032182;28;19957;-53
2023/08/05 08:49:46;;;;;;;;;;;20.80;64.50;;;;;;5031310;28;19932;-54
2023/08/05 08:52:12;;;;;;;;;;;20.90;65.10;;;;;;5029913;28;19913;-53
2023/08/05 08:54:37;;;;;;;;;;;20.90;63.90;;;;;;5017903;28;19961;-54
2023/08/05 08:57:03;;;;;;;;;;;20.90;65.20;;;;;;5026969;28;19995;-53
2023/08/05 08:59:28;;;;;;;;;;;20.90;65.50;;;;;;5029993;28;19924;-53
2023/08/05 09:01:54;;;;;;;;;;;20.90;65.50;;;;;;5032163;28;19939;-54
2023/08/05 09:04:19;;;;;;;;;;;20.90;64.60;;;;;;5029945;28;19936;-53
2023/08/05 09:06:45;;;;;;;;;;;20.90;64.80;;;;;;5012214;28;19917;-54
2023/08/05 09:09:11;;;;;;;;;;;20.90;64.70;;;;;;5033773;28;19913;-53
2023/08/05 09:11:37;;;;;;;;;;;20.90;63.80;;;;;;5030831;28;19913;-53
2023/08/05 09:14:03;;;;;;;;;;;20.90;64.60;;;;;;5027061;28;20283;-54
2023/08/05 09:16:29;;;;;;;;;;;20.90;64.00;;;;;;5032668;28;19964;-55
2023/08/05 09:18:54;;;;;;;;;;;20.90;63.00;;;;;;5038866;28;20047;-55
2023/08/05 09:21:23;;;;;;;;;;;20.90;64.50;;;;;;5030148;28;19909;-53
2023/08/05 09:23:48;;;;;;;;;;;20.90;63.60;;;;;;5044663;28;20400;-53
2023/08/05 09:26:14;;;;;;;;;;;20.90;63.40;;;;;;5032805;28;19921;-54
2023/08/05 09:28:39;;;;;;;;;;;20.90;63.20;;;;;;5029796;28;19913;-53
2023/08/05 09:31:11;;;;;;;;;;;20.90;63.90;;;;;;5030486;28;19909;-54
2023/08/05 09:33:37;;;;;;;;;;;20.90;63.80;;;;;;5031766;28;19917;-54
2023/08/05 09:36:12;;;;;;;;;;;20.90;64.00;;;;;;5035608;28;20284;-54
2023/08/05 09:38:41;;;;;;;;;;;20.90;63.70;;;;;;5032500;28;19913;-54
2023/08/05 09:41:07;;;;;;;;;;;20.90;64.30;;;;;;5032594;28;19925;-54
2023/08/05 09:43:35;;;;;;;;;;;21.00;64.30;;;;;;5047762;28;19959;-54
2023/08/05 09:46:04;;;;;;;;;;;20.90;63.80;;;;;;5035702;28;19909;-53
2023/08/05 09:48:31;;;;;;;;;;;20.90;63.50;;;;;;5034758;28;19925;-53
2023/08/05 09:50:58;;;;;;;;;;;20.90;63.90;;;;;;5028983;28;19920;-54
2023/08/05 09:53:24;;;;;;;;;;;20.90;64.50;;;;;;5030458;28;19974;-54
2023/08/05 09:55:49;;;;;;;;;;;20.90;64.10;;;;;;5016965;28;19917;-54
2023/08/05 09:58:15;;;;;;;;;;;20.90;64.60;;;;;;5033171;28;19921;-54
2023/08/05 10:00:41;;;;;;;;;;;20.90;63.10;;;;;;5035269;28;20305;-54
2023/08/05 10:03:07;;;;;;;;;;;20.90;63.40;;;;;;5033277;28;19917;-53
2023/08/05 10:05:34;;;;;;;;;;;20.90;63.10;;;;;;5026601;28;19967;-53
2023/08/05 10:07:59;;;;;;;;;;;20.90;62.80;;;;;;5015105;28;19940;-54
2023/08/05 10:10:25;;;;;;;;;;;20.90;63.40;;;;;;5024814;28;20437;-54
2023/08/05 10:12:52;;;;;;;;;;;21.00;64.30;;;;;;5034308;28;19909;-55
2023/08/05 10:15:19;;;;;;;;;;;21.00;64.10;;;;;;5032232;28;20047;-54
2023/08/05 10:17:45;;;;;;;;;;;20.90;62.20;;;;;;5016808;28;19917;-54
2023/08/05 10:20:13;;;;;;;;;;;21.00;63.40;;;;;;5031726;28;19920;-53
2023/08/05 10:22:39;;;;;;;;;;;21.00;62.40;;;;;;5034580;28;19909;-54
2023/08/05 10:25:05;;;;;;;;;;;21.20;60.50;;;;;;5033509;28;19917;-54
2023/08/05 10:27:43;;;;;;;;;;;21.20;61.30;;;;;;5028743;28;19917;-54
2023/08/05 10:30:12;;;;;;;;;;;21.10;63.30;;;;;;5023740;28;19916;-53
2023/08/05 10:32:54;;;;;;;;;;;21.10;63.80;;;;;;5034566;28;19941;-55
2023/08/05 10:35:26;;;;;;;;;;;21.00;63.00;;;;;;5034481;28;20019;-54
2023/08/05 10:38:03;;;;;;;;;;;21.00;62.80;;;;;;5034168;28;19992;-54
2023/08/05 10:40:47;;;;;;;;;;;21.10;63.40;;;;;;5047486;28;20356;-53
2023/08/05 10:43:28;;;;;;;;;;;21.10;63.20;;;;;;5053653;28;20576;-53
2023/08/05 10:45:54;;;;;;;;;;;21.10;63.80;;;;;;5053553;28;20468;-54
2023/08/05 10:48:19;;;;;;;;;;;21.00;63.50;;;;;;5039257;28;19925;-54
2023/08/05 10:50:46;;;;;;;;;;;21.00;63.10;;;;;;5034031;28;20044;-53
2023/08/05 10:53:12;;;;;;;;;;;21.10;63.30;;;;;;5032323;28;20278;-54
2023/08/05 10:55:46;;;;;;;;;;;21.10;63.80;;;;;;5033092;28;20020;-53
2023/08/05 10:58:12;;;;;;;;;;;21.10;62.40;;;;;;5023068;28;19963;-53
2023/08/05 11:00:42;;;;;;;;;;;21.10;62.70;;;;;;5050771;28;20365;-54
2023/08/05 11:03:26;;;;;;;;;;;21.20;61.40;;;;;;5031260;28;19913;-54
2023/08/05 11:05:55;;;;;;;;;;;21.20;61.10;;;;;;5034146;28;19909;-53
2023/08/05 11:08:21;;;;;;;;;;;21.20;61.10;;;;;;5032108;28;19914;-55
2023/08/05 11:10:48;;;;;;;;;;;21.20;60.30;;;;;;5026946;28;19913;-54
2023/08/05 11:13:13;;;;;;;;;;;21.40;59.90;;;;;;5041487;28;20653;-55
2023/08/05 11:15:39;;;;;;;;;;;21.50;59.50;;;;;;5037605;28;19928;-54
2023/08/05 11:18:06;;;;;;;;;;;21.60;59.20;;;;;;5035224;28;19923;-54
2023/08/05 11:20:31;;;;;;;;;;;21.70;58.60;;;;;;5031224;28;20298;-55
2023/08/05 11:22:57;;;;;;;;;;;21.60;58.90;;;;;;5015640;28;19909;-54
2023/08/05 11:25:22;;;;;;;;;;;21.60;58.10;;;;;;5033745;28;20382;-54
2023/08/05 11:27:52;;;;;;;;;;;21.70;57.70;;;;;;5030951;28;20288;-54
2023/08/05 11:30:18;;;;;;;;;;;21.80;57.80;;;;;;5033254;28;19917;-54
2023/08/05 11:32:53;;;;;;;;;;;21.60;57.50;;;;;;5031603;28;19913;-55
2023/08/05 11:35:19;;;;;;;;;;;21.50;57.60;;;;;;5033939;28;20490;-54
2023/08/05 11:37:44;;;;;;;;;;;21.50;58.20;;;;;;5031803;28;20012;-54
2023/08/05 11:40:10;;;;;;;;;;;21.40;59.20;;;;;;5033313;28;19909;-54
2023/08/05 11:42:36;;;;;;;;;;;21.40;58.90;;;;;;5030520;28;19969;-54
2023/08/05 11:45:01;;;;;;;;;;;21.40;58.40;;;;;;5027624;28;19940;-54
2023/08/05 11:47:27;;;;;;;;;;;21.40;58.20;;;;;;5037637;28;19912;-54
2023/08/05 11:49:52;;;;;;;;;;;21.40;58.80;;;;;;5032613;28;19932;-54
2023/08/05 11:52:18;;;;;;;;;;;21.40;59.20;;;;;;5036991;28;19923;-54
2023/08/05 11:54:47;;;;;;;;;;;21.40;58.60;;;;;;5030900;28;20020;-54
2023/08/05 11:57:19;;;;;;;;;;;21.40;58.60;;;;;;5036282;28;19952;-54
2023/08/05 11:59:45;;;;;;;;;;;21.40;57.70;;;;;;5028160;28;20370;-55
2023/08/05 12:02:11;;;;;;;;;;;21.50;57.50;;;;;;5031729;28;20388;-55
2023/08/05 12:04:40;;;;;;;;;;;21.40;57.80;;;;;;5033351;28;19909;-54
2023/08/05 12:07:05;;;;;;;;;;;21.40;57.60;;;;;;5023111;28;19913;-54
2023/08/05 12:09:31;;;;;;;;;;;21.40;57.50;;;;;;5034680;28;20258;-55
2023/08/05 12:11:57;;;;;;;;;;;21.50;57.30;;;;;;5034338;28;19913;-53
2023/08/05 12:14:24;;;;;;;;;;;21.50;56.40;;;;;;5031897;28;19910;-54
2023/08/05 12:16:52;;;;;;;;;;;21.50;56.30;;;;;;5038610;28;19921;-54
2023/08/05 12:19:18;;;;;;;;;;;21.50;56.10;;;;;;5019949;28;20438;-54
2023/08/05 12:21:43;;;;;;;;;;;21.60;56.00;;;;;;5031265;28;20077;-54
2023/08/05 12:24:08;;;;;;;;;;;21.60;56.00;;;;;;5031254;28;19917;-54
2023/08/05 12:26:34;;;;;;;;;;;21.50;56.20;;;;;;5031831;28;20143;-55
2023/08/05 12:28:59;;;;;;;;;;;21.50;55.40;;;;;;5027653;28;20270;-55
2023/08/05 12:31:25;;;;;;;;;;;21.50;55.60;;;;;;5035760;28;19979;-54
2023/08/05 12:33:50;;;;;;;;;;;21.50;55.00;;;;;;5035454;28;19935;-54
2023/08/05 12:36:16;;;;;;;;;;;21.50;55.10;;;;;;5031779;28;19935;-54
2023/08/05 12:38:41;;;;;;;;;;;21.50;54.80;;;;;;5030070;28;19920;-54
2023/08/05 12:41:07;;;;;;;;;;;21.50;54.70;;;;;;5028946;28;19914;-54
2023/08/05 12:43:32;;;;;;;;;;;21.50;54.20;;;;;;5027417;28;19913;-54
2023/08/05 12:45:58;;;;;;;;;;;21.60;54.10;;;;;;5032401;28;19941;-53
2023/08/05 12:48:24;;;;;;;;;;;21.70;54.30;;;;;;5030728;28;19925;-55
2023/08/05 12:50:51;;;;;;;;;;;21.70;54.80;;;;;;5028429;28;20427;-54
2023/08/05 12:53:16;;;;;;;;;;;21.70;54.20;;;;;;5029347;28;19913;-54
2023/08/05 12:55:42;;;;;;;;;;;21.80;53.90;;;;;;5030793;28;19974;-54
2023/08/05 12:58:07;;;;;;;;;;;21.80;54.30;;;;;;5030620;28;19952;-55
2023/08/05 13:00:33;;;;;;;;;;;21.90;54.10;;;;;;5029101;28;20004;-54
2023/08/05 13:02:58;;;;;;;;;;;21.90;54.60;;;;;;5030893;28;19909;-54
2023/08/05 13:05:24;;;;;;;;;;;21.90;54.60;;;;;;5031041;28;19917;-54
2023/08/05 13:07:50;;;;;;;;;;;21.90;54.80;;;;;;5029770;28;19936;-55
2023/08/05 13:10:15;;;;;;;;;;;21.90;54.80;;;;;;5031180;28;20432;-54
2023/08/05 13:12:41;;;;;;;;;;;22.00;54.50;;;;;;5027265;28;20427;-54
2023/08/05 13:15:06;;;;;;;;;;;22.10;53.90;;;;;;5011266;28;19921;-54
2023/08/05 13:17:32;;;;;;;;;;;22.20;54.00;;;;;;5012473;28;19909;-54
2023/08/05 13:19:57;;;;;;;;;;;22.10;53.20;;;;;;5031441;28;19996;-55
2023/08/05 13:22:23;;;;;;;;;;;22.20;53.30;;;;;;5036371;28;19920;-55
2023/08/05 13:24:48;;;;;;;;;;;22.10;53.20;;;;;;5046883;28;19916;-54
2023/08/05 13:27:13;;;;;;;;;;;22.10;53.80;;;;;;5032262;28;19932;-54
2023/08/05 13:29:39;;;;;;;;;;;22.10;53.70;;;;;;5025306;28;19968;-54
2023/08/05 13:32:05;;;;;;;;;;;22.20;53.40;;;;;;5040584;28;20388;-54
2023/08/05 13:34:30;;;;;;;;;;;22.30;53.60;;;;;;5028968;28;19921;-54
2023/08/05 13:36:56;;;;;;;;;;;22.40;53.60;;;;;;5031099;28;19917;-54
2023/08/05 13:39:22;;;;;;;;;;;22.40;53.40;;;;;;5030316;28;19917;-54
2023/08/05 13:41:48;;;;;;;;;;;22.50;53.60;;;;;;5031680;28;20388;-54
2023/08/05 13:44:13;;;;;;;;;;;22.60;53.50;;;;;;5027982;28;19917;-54
2023/08/05 13:46:39;;;;;;;;;;;22.60;53.70;;;;;;5014244;28;19963;-54
2023/08/05 13:49:04;;;;;;;;;;;22.60;53.90;;;;;;5030019;28;19995;-55
2023/08/05 13:51:30;;;;;;;;;;;22.60;53.70;;;;;;5031494;28;19913;-54
2023/08/05 13:53:56;;;;;;;;;;;22.60;53.90;;;;;;5030109;28;19947;-54
2023/08/05 13:56:22;;;;;;;;;;;22.60;53.80;;;;;;5039530;28;19917;-55
2023/08/05 13:58:48;;;;;;;;;;;22.50;53.30;;;;;;5028311;28;19967;-54
2023/08/05 14:01:16;;;;;;;;;;;22.50;53.20;;;;;;5026787;28;19913;-55
2023/08/05 14:03:41;;;;;;;;;;;22.50;54.10;;;;;;5030187;28;19909;-55
2023/08/05 14:06:08;;;;;;;;;;;22.50;53.80;;;;;;5039028;28;19932;-54
2023/08/05 14:08:34;;;;;;;;;;;22.60;53.40;;;;;;5023935;28;19913;-54
2023/08/05 14:10:59;;;;;;;;;;;22.70;53.10;;;;;;5031099;28;19924;-54